createdAt,value
2022-08-05T00:04:46.294Z,26.13
2022-08-05T00:10:08.341Z,25.48
2022-08-05T00:15:14.412Z,25.34
2022-08-05T00:20:42.529Z,25.41
2022-08-05T00:25:46.087Z,25.56
2022-08-05T00:30:46.531Z,25.59
2022-08-05T00:36:16.119Z,25.51
2022-08-05T00:41:14.143Z,25.61
2022-08-05T00:46:15.930Z,25.40
2022-08-05T00:51:51.194Z,25.39
2022-08-05T00:56:51.561Z,25.46
2022-08-05T01:01:55.655Z,25.35
2022-08-05T01:07:05.979Z,25.26
2022-08-05T01:12:19.176Z,25.10
2022-08-05T01:17:45.885Z,25.29
2022-08-05T01:23:36.245Z,25.45
2022-08-05T01:28:41.196Z,24.75
2022-08-05T01:34:22.557Z,24.68
2022-08-05T01:39:36.838Z,24.66
2022-08-05T01:44:54.073Z,24.84
2022-08-05T01:50:01.847Z,24.94
2022-08-05T01:55:06.009Z,24.91
2022-08-05T02:00:06.041Z,24.79
2022-08-05T02:05:12.846Z,24.82
2022-08-05T02:10:17.686Z,24.63
2022-08-05T02:15:33.274Z,24.58
2022-08-05T02:20:43.645Z,24.25
2022-08-05T02:25:50.220Z,24.31
2022-08-05T02:30:58.567Z,24.48
2022-08-05T02:36:01.213Z,24.22
2022-08-05T02:41:00.611Z,24.30
2022-08-05T02:46:18.728Z,24.31
2022-08-05T02:52:03.370Z,24.12
2022-08-05T02:56:52.707Z,24.21
2022-08-05T03:01:52.226Z,24.43
2022-08-05T03:06:55.567Z,24.22
2022-08-05T03:12:13.793Z,24.10
2022-08-05T03:17:20.255Z,24.02
2022-08-05T03:22:32.196Z,23.91
2022-08-05T03:27:59.574Z,23.90
2022-08-05T03:32:56.683Z,23.99
2022-08-05T03:37:58.488Z,23.90
2022-08-05T03:43:15.940Z,23.90
2022-08-05T03:48:29.228Z,23.97
2022-08-05T03:55:06.890Z,23.83
2022-08-05T03:59:15.142Z,23.99
2022-08-05T04:04:26.557Z,24.00
2022-08-05T04:09:27.350Z,23.97
2022-08-05T04:14:29.745Z,24.33
2022-08-05T04:19:42.028Z,24.29
2022-08-05T04:24:52.589Z,24.38
2022-08-05T04:29:53.336Z,24.18
2022-08-05T04:34:53.545Z,24.30
2022-08-05T04:39:57.261Z,24.61
2022-08-05T04:45:03.065Z,24.45
2022-08-05T04:50:11.509Z,24.51
2022-08-05T04:55:16.238Z,24.67
2022-08-05T05:00:23.515Z,24.54
2022-08-05T05:05:28.216Z,24.75
2022-08-05T05:10:52.608Z,24.73
2022-08-05T05:16:02.121Z,24.90
2022-08-05T05:21:07.731Z,24.97
2022-08-05T05:26:06.825Z,24.92
2022-08-05T05:31:05.860Z,24.81
2022-08-05T05:36:06.686Z,25.05
2022-08-05T05:41:07.675Z,24.85
2022-08-05T05:46:12.121Z,25.00
2022-08-05T05:51:28.170Z,24.96
2022-08-05T05:56:32.862Z,25.29
2022-08-05T06:01:39.922Z,25.33
2022-08-05T06:06:42.142Z,25.43
2022-08-05T06:11:40.983Z,25.84
2022-08-05T06:17:22.237Z,26.01
2022-08-05T06:22:33.578Z,26.41
2022-08-05T06:28:10.411Z,26.34
2022-08-05T06:32:56.968Z,26.51
2022-08-05T06:37:59.015Z,26.58
2022-08-05T06:43:01.424Z,26.76
2022-08-05T06:48:44.140Z,26.81
2022-08-05T06:53:22.455Z,27.17
2022-08-05T06:58:29.741Z,27.15
2022-08-05T07:03:36.480Z,27.28
2022-08-05T07:08:34.811Z,27.36
2022-08-05T07:13:59.865Z,27.46
2022-08-05T07:19:01.794Z,27.69
2022-08-05T07:24:01.217Z,27.61
2022-08-05T07:29:01.509Z,27.83
2022-08-05T07:34:02.073Z,28.05
2022-08-05T07:39:08.893Z,28.13
2022-08-05T07:44:31.310Z,28.09
2022-08-05T07:49:32.281Z,28.35
2022-08-05T07:54:49.237Z,28.79
2022-08-05T07:59:48.794Z,28.45
2022-08-05T08:04:55.847Z,28.75
2022-08-05T08:09:55.025Z,29.04
2022-08-05T08:14:56.593Z,29.09
2022-08-05T08:20:43.531Z,29.07
2022-08-05T08:25:16.079Z,29.22
2022-08-05T08:30:27.006Z,29.15
2022-08-05T08:35:53.845Z,29.44
2022-08-05T08:41:05.853Z,29.50
2022-08-05T08:46:06.163Z,29.57
2022-08-05T08:51:54.571Z,29.77
2022-08-05T08:56:47.617Z,29.84
2022-08-05T09:01:57.591Z,30.08
2022-08-05T09:07:03.692Z,29.98
2022-08-05T09:12:30.035Z,29.90
2022-08-05T09:17:43.088Z,30.27
2022-08-05T09:23:19.685Z,30.30
2022-08-05T09:28:31.475Z,30.34
2022-08-05T09:33:35.232Z,30.63
2022-08-05T09:38:46.255Z,30.86
2022-08-05T09:43:45.290Z,31.06
2022-08-05T09:49:07.345Z,30.89
2022-08-05T09:54:11.570Z,30.94
2022-08-05T09:59:17.248Z,31.05
2022-08-05T10:04:19.067Z,31.66
2022-08-05T10:09:45.156Z,31.91
2022-08-05T10:14:54.329Z,32.27
2022-08-05T10:20:04.458Z,32.40
2022-08-05T10:25:15.592Z,32.39
2022-08-05T10:32:46.670Z,32.58
2022-08-05T10:35:40.606Z,32.55
2022-08-05T10:40:58.221Z,32.94
2022-08-05T10:46:06.239Z,32.62
2022-08-05T10:51:29.772Z,33.16
2022-08-05T10:56:34.633Z,33.47
2022-08-05T11:01:54.750Z,32.96
2022-08-05T11:07:16.309Z,32.96
2022-08-05T11:12:35.114Z,33.17
2022-08-05T11:17:59.813Z,33.42
2022-08-05T11:24:02.526Z,33.70
2022-08-05T11:29:13.291Z,34.31
2022-08-05T11:34:38.739Z,34.25
2022-08-05T11:40:00.510Z,34.08
2022-08-05T11:45:14.513Z,34.66
2022-08-05T11:50:31.453Z,34.44
2022-08-05T11:55:36.417Z,34.98
2022-08-05T12:00:37.992Z,35.14
2022-08-05T12:05:43.444Z,34.35
2022-08-05T12:10:45.848Z,34.17
2022-08-05T12:15:49.717Z,34.12
2022-08-05T12:20:51.937Z,33.99
2022-08-05T12:26:08.203Z,34.52
2022-08-05T12:31:09.058Z,34.87
2022-08-05T12:36:14.826Z,35.28
2022-08-05T12:41:17.482Z,35.51
2022-08-05T12:46:31.438Z,35.95
2022-08-05T12:52:13.116Z,35.87
2022-08-05T12:57:01.456Z,35.26
2022-08-05T13:02:07.894Z,34.83
2022-08-05T13:07:55.889Z,34.43
2022-08-05T13:12:57.620Z,34.04
2022-08-05T13:18:05.957Z,34.43
2022-08-05T13:23:08.847Z,34.02
2022-08-05T13:28:16.258Z,34.24
2022-08-05T13:34:24.831Z,34.09
2022-08-05T13:38:43.256Z,34.16
2022-08-05T13:43:54.585Z,34.39
2022-08-05T13:48:57.826Z,35.22
2022-08-05T13:54:11.670Z,37.44
2022-08-05T13:59:24.023Z,40.16
2022-08-05T14:05:00.529Z,41.02
2022-08-05T14:10:00.507Z,40.94
2022-08-05T14:16:04.580Z,39.48
2022-08-05T14:20:38.247Z,40.60
2022-08-05T14:25:45.038Z,38.66
2022-08-05T14:30:51.900Z,38.14
2022-08-05T14:35:54.352Z,38.01
2022-08-05T14:40:55.908Z,36.74
2022-08-05T14:46:08.773Z,36.38
2022-08-05T14:51:09.972Z,36.85
2022-08-05T14:57:00.350Z,35.38
2022-08-05T15:08:58.720Z,36.15
2022-08-05T15:13:52.172Z,36.42
2022-08-05T15:18:54.765Z,35.38
2022-08-05T15:23:59.917Z,35.16
2022-08-05T15:28:59.268Z,34.49
2022-08-05T15:34:32.076Z,34.50
2022-08-05T15:40:58.323Z,34.40
2022-08-05T15:45:07.050Z,33.91
2022-08-05T15:50:13.969Z,33.85
2022-08-05T15:55:25.107Z,33.99
2022-08-05T16:01:03.485Z,33.99
2022-08-05T16:06:06.561Z,33.34
2022-08-05T16:11:05.355Z,35.64
2022-08-05T16:16:25.484Z,35.17
2022-08-05T16:22:00.136Z,36.04
2022-08-05T16:27:02.049Z,35.24
2022-08-05T16:32:14.175Z,35.26
2022-08-05T16:48:43.082Z,34.30
2022-08-05T16:54:04.998Z,34.22
2022-08-05T16:59:14.671Z,34.04
2022-08-05T17:04:15.258Z,33.58
2022-08-05T17:09:15.718Z,33.34
2022-08-05T17:14:34.465Z,33.38
2022-08-05T17:19:36.543Z,33.29
2022-08-05T17:24:42.285Z,33.05
2022-08-05T17:29:59.515Z,32.82
2022-08-05T17:35:04.314Z,32.91
2022-08-05T17:40:03.871Z,32.74
2022-08-05T17:45:18.106Z,32.39
2022-08-05T17:50:27.631Z,32.43
2022-08-05T17:55:37.217Z,32.10
2022-08-05T18:00:44.657Z,31.98
2022-08-05T18:05:53.447Z,31.80
2022-08-05T18:10:54.136Z,31.81
2022-08-05T18:15:52.612Z,31.65
2022-08-05T18:21:19.554Z,31.40
2022-08-05T18:26:27.800Z,31.48
2022-08-05T18:31:33.958Z,31.46
2022-08-05T18:36:41.356Z,31.15
2022-08-05T18:42:01.850Z,31.07
2022-08-05T18:47:15.663Z,30.92
2022-08-05T18:52:35.896Z,30.66
2022-08-05T18:57:50.100Z,30.52
2022-08-05T19:03:04.732Z,30.68
2022-08-05T19:08:21.331Z,30.42
2022-08-05T19:13:22.669Z,30.29
2022-08-05T19:18:40.470Z,30.18
2022-08-05T19:24:07.124Z,30.34
2022-08-05T19:29:07.162Z,30.45
2022-08-05T19:34:09.212Z,30.26
2022-08-05T19:39:13.206Z,30.19
2022-08-05T19:44:17.295Z,30.08
2022-08-05T19:49:19.442Z,30.06
2022-08-05T19:54:31.559Z,30.16
2022-08-05T20:00:01.193Z,29.90
2022-08-05T20:04:58.854Z,29.96
2022-08-05T20:10:11.641Z,29.92
2022-08-05T20:15:23.073Z,29.90
2022-08-05T20:20:49.522Z,29.77
2022-08-05T20:25:52.236Z,29.77
2022-08-05T20:30:53.212Z,29.69
2022-08-05T20:35:55.431Z,29.45
2022-08-05T20:40:55.519Z,29.47
2022-08-05T20:46:00.231Z,29.37
2022-08-05T20:51:00.671Z,29.33
2022-08-05T20:56:09.366Z,29.17
2022-08-05T21:01:11.858Z,29.24
2022-08-05T21:06:27.523Z,29.19
2022-08-05T21:12:07.662Z,29.14
2022-08-05T21:16:52.909Z,29.14
2022-08-05T21:22:00.597Z,29.15
2022-08-05T21:27:02.096Z,28.97
2022-08-05T21:32:03.891Z,28.97
2022-08-05T21:37:05.639Z,29.04
2022-08-05T21:42:05.554Z,29.12
2022-08-05T21:47:32.853Z,28.68
2022-08-05T21:52:28.850Z,28.63
2022-08-05T21:57:52.877Z,28.52
2022-08-05T22:03:15.937Z,28.38
2022-08-05T22:08:51.988Z,27.97
2022-08-05T22:14:05.741Z,27.37
2022-08-05T22:20:00.467Z,27.45
2022-08-05T22:24:57.767Z,27.79
2022-08-05T22:30:00.921Z,27.71
2022-08-05T22:34:59.170Z,27.47
2022-08-05T22:39:57.866Z,27.65
2022-08-05T22:45:00.110Z,27.67
2022-08-05T22:50:21.599Z,27.74
2022-08-05T22:55:24.022Z,27.63
2022-08-05T23:00:27.292Z,27.34
2022-08-05T23:05:25.522Z,27.34
2022-08-05T23:10:24.432Z,27.61
2022-08-05T23:15:29.380Z,26.83
2022-08-05T23:20:37.531Z,26.27
2022-08-05T23:25:52.099Z,26.85
2022-08-05T23:31:17.159Z,27.04
2022-08-05T23:36:28.344Z,27.08
2022-08-05T23:41:30.589Z,26.99
2022-08-05T23:46:33.785Z,26.82
2022-08-05T23:52:25.261Z,26.71
2022-08-05T23:57:24.701Z,26.46
